Sticklerstown, Pennsylvania
Current Conditions -  °F | °C
As of 6:53 PM on Tuesday 25 Nov 2014 (Local Time) from KLNS Reporting Station
Clear Clear  
Wind Chill: 40°   Ceiling: Unl
Heat Index: 40°   Visibility: 10mi
Dew Point: 29°   Wind: 3mph
Humidity: 65%   Direction: 280°W
Pressure: 30.09"   Gusts: NA
Location:  40.3035°N, 76.254°W
Report Text: KLNS 252353Z 28003KT 10SM CLR 04/M02 A3009 RMK AO2 SLP192 T00441017 10117 20039 53022
Loading
Personal Weather Stations






























Interactive Weather Map New forecast layout! Learn more

10-Day Weather Forecast

Advertisements
Track Severe Weather on mobile